Time,TemperatureF,DewpointF,PressureIn,WindDirection,WindDirectionDegrees,WindSpeedMPH,WindSpeedGustMPH,Humidity,HourlyPrecipIn,Conditions,Clouds,dailyrainin,SoftwareType,DateUTC
2013-12-29 00:01:00,30.8,30.8,30.00,NE,41,0.0,0.0,100,0.00,,,0.00,VWS V13.01,2013-12-29 06:01:00,
2013-12-29 00:06:00,30.8,30.8,30.00,NE,41,0.0,0.0,100,0.00,,,0.00,VWS V13.01,2013-12-29 06:06:00,
2013-12-29 00:11:00,30.8,30.8,30.00,NE,41,0.0,0.0,100,0.00,,,0.00,VWS V13.01,2013-12-29 06:11:00,
2013-12-29 00:16:00,30.8,30.8,30.00,NE,41,0.0,0.0,100,0.00,,,0.00,VWS V13.01,2013-12-29 06:16:00,
2013-12-29 00:21:00,30.8,30.8,30.00,NE,41,0.0,0.0,100,0.00,,,0.00,VWS V13.01,2013-12-29 06:21:00,
2013-12-29 00:26:00,30.8,30.8,30.00,NE,41,0.0,0.0,100,0.00,,,0.00,VWS V13.01,2013-12-29 06:26:00,
2013-12-29 00:31:00,31.0,31.0,30.00,NE,41,0.0,0.0,100,0.00,,,0.00,VWS V13.01,2013-12-29 06:31:00,
2013-12-29 00:36:00,31.0,31.0,30.00,NE,41,0.0,0.0,100,0.00,,,0.00,VWS V13.01,2013-12-29 06:36:00,
2013-12-29 00:41:00,31.3,31.3,30.00,NE,41,0.0,0.0,100,0.00,,,0.00,VWS V13.01,2013-12-29 06:41:00,
2013-12-29 00:46:00,31.5,31.5,30.00,NE,41,0.0,0.0,100,0.00,,,0.00,VWS V13.01,2013-12-29 06:46:00,
2013-12-29 00:51:00,31.5,31.5,30.00,NE,41,0.0,0.0,100,0.00,,,0.00,VWS V13.01,2013-12-29 06:51:00,
2013-12-29 00:56:00,31.7,31.7,30.00,NE,41,0.0,0.0,100,0.00,,,0.00,VWS V13.01,2013-12-29 06:56:00,
2013-12-29 01:01:00,31.7,31.7,30.00,NE,41,0.0,0.0,100,0.00,,,0.00,VWS V13.01,2013-12-29 07:01:00,
2013-12-29 01:06:00,32.0,32.0,30.00,NE,41,0.0,0.0,100,0.00,,,0.00,VWS V13.01,2013-12-29 07:06:00,
2013-12-29 01:11:00,32.0,32.0,30.00,NE,41,0.0,0.0,100,0.00,,,0.00,VWS V13.01,2013-12-29 07:11:00,
2013-12-29 01:16:00,32.2,32.2,30.00,NE,41,0.0,0.0,100,0.00,,,0.00,VWS V13.01,2013-12-29 07:16:00,
2013-12-29 01:21:00,32.4,32.4,30.00,NE,41,0.0,0.0,100,0.00,,,0.00,VWS V13.01,2013-12-29 07:21:00,
2013-12-29 01:26:00,32.4,32.4,30.00,NE,41,0.0,0.0,100,0.00,,,0.00,VWS V13.01,2013-12-29 07:26:00,
2013-12-29 01:31:00,32.6,32.6,30.00,NE,41,0.0,0.0,100,0.00,,,0.00,VWS V13.01,2013-12-29 07:31:00,
2013-12-29 01:36:00,32.8,32.8,30.00,NE,41,0.0,0.0,100,0.00,,,0.00,VWS V13.01,2013-12-29 07:36:00,
2013-12-29 01:41:00,32.8,32.8,30.00,NE,41,0.0,0.0,100,0.00,,,0.00,VWS V13.01,2013-12-29 07:41:00,
2013-12-29 01:46:00,32.9,32.9,30.00,NE,41,0.0,0.0,100,0.00,,,0.00,VWS V13.01,2013-12-29 07:46:00,
2013-12-29 01:51:00,33.1,33.1,30.00,NE,41,0.0,0.0,100,0.00,,,0.00,VWS V13.01,2013-12-29 07:51:00,
2013-12-29 01:56:00,33.1,33.1,30.00,NE,41,0.0,0.0,100,0.00,,,0.00,VWS V13.01,2013-12-29 07:56:00,
2013-12-29 02:01:00,33.3,33.3,30.00,NE,41,0.0,0.0,100,0.00,,,0.00,VWS V13.01,2013-12-29 08:01:00,
2013-12-29 02:06:00,33.5,33.5,30.00,NE,41,0.0,0.0,100,0.00,,,0.00,VWS V13.01,2013-12-29 08:06:00,
2013-12-29 02:11:00,33.5,33.5,30.00,NE,41,0.0,0.0,100,0.00,,,0.00,VWS V13.01,2013-12-29 08:11:00,
2013-12-29 02:16:00,33.5,33.5,30.00,NE,41,0.0,0.0,100,0.00,,,0.00,VWS V13.01,2013-12-29 08:16:00,
2013-12-29 02:21:00,33.5,33.5,30.00,NE,41,0.0,0.0,100,0.00,,,0.00,VWS V13.01,2013-12-29 08:21:00,
2013-12-29 02:26:00,33.7,33.7,30.00,NE,41,0.0,0.0,100,0.00,,,0.00,VWS V13.01,2013-12-29 08:26:00,
2013-12-29 02:31:00,33.7,33.7,30.00,NE,41,0.0,0.0,100,0.00,,,0.00,VWS V13.01,2013-12-29 08:31:00,
2013-12-29 02:36:00,33.7,33.7,30.00,NE,41,0.0,0.0,100,0.00,,,0.00,VWS V13.01,2013-12-29 08:36:00,
2013-12-29 02:41:00,33.8,33.8,30.00,NE,41,0.0,0.0,100,0.00,,,0.00,VWS V13.01,2013-12-29 08:41:00,
2013-12-29 02:46:00,33.8,33.8,30.00,NE,41,0.0,0.0,100,0.00,,,0.00,VWS V13.01,2013-12-29 08:46:00,
2013-12-29 02:51:00,33.8,33.8,30.00,NE,41,2.7,3.1,100,0.00,,,0.00,VWS V13.01,2013-12-29 08:51:00,
2013-12-29 02:56:00,33.8,33.8,30.00,NE,41,0.0,0.0,100,0.00,,,0.00,VWS V13.01,2013-12-29 08:56:00,
2013-12-29 03:01:00,33.8,33.8,30.00,NE,41,0.0,0.0,100,0.00,,,0.00,VWS V13.01,2013-12-29 09:01:00,
2013-12-29 03:06:00,34.0,34.0,30.00,NE,41,0.0,0.0,100,0.00,,,0.00,VWS V13.01,2013-12-29 09:06:00,
2013-12-29 03:11:00,34.2,34.2,30.00,NE,41,0.0,0.0,100,0.00,,,0.00,VWS V13.01,2013-12-29 09:11:00,
2013-12-29 03:16:00,34.2,34.2,30.00,NE,41,0.0,0.0,100,0.00,,,0.00,VWS V13.01,2013-12-29 09:16:00,
2013-12-29 03:21:00,34.2,34.2,30.00,NE,41,0.0,0.0,100,0.00,,,0.00,VWS V13.01,2013-12-29 09:21:00,
2013-12-29 03:26:00,34.2,34.2,30.00,NE,41,0.0,0.0,100,0.00,,,0.00,VWS V13.01,2013-12-29 09:26:00,
2013-12-29 03:31:00,34.2,34.2,30.00,NE,41,0.0,0.0,100,0.00,,,0.00,VWS V13.01,2013-12-29 09:31:00,
2013-12-29 03:36:00,34.2,34.2,30.00,NE,41,0.0,0.0,100,0.00,,,0.00,VWS V13.01,2013-12-29 09:36:00,
2013-12-29 03:41:00,34.4,34.4,30.00,NE,41,0.0,0.0,100,0.00,,,0.00,VWS V13.01,2013-12-29 09:41:00,
2013-12-29 03:46:00,34.4,34.4,30.00,NE,41,0.0,0.0,100,0.00,,,0.00,VWS V13.01,2013-12-29 09:46:00,
2013-12-29 03:51:00,34.4,34.4,30.00,NE,41,0.0,0.0,100,0.00,,,0.00,VWS V13.01,2013-12-29 09:51:00,
2013-12-29 03:56:00,34.4,34.4,30.00,NE,41,0.0,0.0,100,0.00,,,0.00,VWS V13.01,2013-12-29 09:56:00,
2013-12-29 04:01:00,34.4,34.4,30.00,NE,41,0.0,0.0,100,0.00,,,0.00,VWS V13.01,2013-12-29 10:01:00,
2013-12-29 04:06:00,34.6,34.6,30.00,NE,41,0.0,0.0,100,0.00,,,0.00,VWS V13.01,2013-12-29 10:06:00,
2013-12-29 04:11:00,34.6,34.6,30.00,NE,41,0.0,0.0,100,0.00,,,0.00,VWS V13.01,2013-12-29 10:11:00,
2013-12-29 04:15:00,34.6,34.6,30.00,NE,41,0.0,0.0,100,0.00,,,0.00,VWS V13.01,2013-12-29 10:15:00,
2013-12-29 04:20:00,34.7,34.7,30.00,NE,41,0.0,0.0,100,0.00,,,0.00,VWS V13.01,2013-12-29 10:20:00,
2013-12-29 04:25:00,34.9,34.9,30.00,NE,41,0.0,0.0,100,0.00,,,0.00,VWS V13.01,2013-12-29 10:25:00,
2013-12-29 04:30:00,35.1,35.1,30.00,NE,41,0.0,0.0,100,0.00,,,0.00,VWS V13.01,2013-12-29 10:30:00,
2013-12-29 04:35:00,35.1,35.1,30.00,NE,41,0.0,0.0,100,0.00,,,0.00,VWS V13.01,2013-12-29 10:35:00,
2013-12-29 04:40:00,35.1,35.1,30.00,NE,41,0.0,0.0,100,0.00,,,0.00,VWS V13.01,2013-12-29 10:40:00,
2013-12-29 04:45:00,35.3,35.3,30.00,NE,41,0.0,0.0,100,0.00,,,0.00,VWS V13.01,2013-12-29 10:45:00,
2013-12-29 04:50:00,35.5,35.5,30.00,NE,41,0.0,0.0,100,0.00,,,0.00,VWS V13.01,2013-12-29 10:50:00,
2013-12-29 04:55:00,35.6,35.6,30.00,NE,41,0.0,0.0,100,0.00,,,0.00,VWS V13.01,2013-12-29 10:55:00,
2013-12-29 05:00:00,35.6,35.6,30.00,NE,41,0.0,0.0,100,0.00,,,0.00,VWS V13.01,2013-12-29 11:00:00,
2013-12-29 05:05:00,35.6,35.6,30.00,NE,41,0.0,0.0,100,0.00,,,0.00,VWS V13.01,2013-12-29 11:05:00,
2013-12-29 05:10:00,35.6,35.6,30.00,NE,41,0.0,0.0,100,0.00,,,0.00,VWS V13.01,2013-12-29 11:10:00,
2013-12-29 05:15:00,35.6,35.6,30.00,NE,41,0.0,0.0,100,0.00,,,0.00,VWS V13.01,2013-12-29 11:15:00,
2013-12-29 05:20:00,35.8,35.8,30.00,NE,41,0.0,0.0,100,0.00,,,0.00,VWS V13.01,2013-12-29 11:20:00,
2013-12-29 05:25:00,35.8,35.8,30.00,NE,41,0.0,0.0,100,0.00,,,0.00,VWS V13.01,2013-12-29 11:25:00,
2013-12-29 05:30:00,35.8,35.8,30.00,NE,41,0.0,0.0,100,0.00,,,0.00,VWS V13.01,2013-12-29 11:30:00,
2013-12-29 05:35:00,35.8,35.8,30.00,NE,41,0.0,0.0,100,0.00,,,0.00,VWS V13.01,2013-12-29 11:35:00,
2013-12-29 05:40:00,36.0,36.0,30.00,NE,41,0.0,0.0,100,0.00,,,0.00,VWS V13.01,2013-12-29 11:40:00,
2013-12-29 05:45:00,36.0,36.0,30.00,NE,41,0.0,0.0,100,0.00,,,0.00,VWS V13.01,2013-12-29 11:45:00,
2013-12-29 05:50:00,36.2,36.2,30.00,NE,41,0.0,0.0,100,0.00,,,0.00,VWS V13.01,2013-12-29 11:50:00,
2013-12-29 05:55:00,36.2,36.2,30.00,NE,41,0.0,0.0,100,0.00,,,0.00,VWS V13.01,2013-12-29 11:55:00,
2013-12-29 06:00:00,36.2,36.2,30.00,NE,41,0.0,0.0,100,0.00,,,0.00,VWS V13.01,2013-12-29 12:00:00,
2013-12-29 06:05:00,36.2,36.2,30.00,NE,41,0.0,0.0,100,0.00,,,0.00,VWS V13.01,2013-12-29 12:05:00,
2013-12-29 06:10:00,36.2,36.2,30.00,NE,41,0.0,0.0,100,0.00,,,0.00,VWS V13.01,2013-12-29 12:10:00,
2013-12-29 06:15:00,36.2,36.2,30.00,NE,41,0.0,0.0,100,0.00,,,0.00,VWS V13.01,2013-12-29 12:15:00,
2013-12-29 06:20:00,36.2,36.2,30.00,NE,41,0.0,0.0,100,0.00,,,0.00,VWS V13.01,2013-12-29 12:20:00,
2013-12-29 06:25:00,36.2,36.2,30.00,NE,41,0.0,0.0,100,0.00,,,0.00,VWS V13.01,2013-12-29 12:25:00,
2013-12-29 06:30:00,36.2,36.2,30.00,NE,41,0.0,0.0,100,0.00,,,0.00,VWS V13.01,2013-12-29 12:30:00,
2013-12-29 06:35:00,36.4,36.4,30.00,NE,41,0.0,0.0,100,0.00,,,0.00,VWS V13.01,2013-12-29 12:35:00,
2013-12-29 06:40:00,36.4,36.4,30.00,NE,41,0.0,0.0,100,0.00,,,0.00,VWS V13.01,2013-12-29 12:40:00,
2013-12-29 06:45:00,36.4,36.4,30.00,South,179,4.0,4.0,100,0.00,,,0.00,VWS V13.01,2013-12-29 12:45:00,
2013-12-29 06:50:00,36.4,36.4,30.00,South,186,0.0,3.1,100,0.00,,,0.00,VWS V13.01,2013-12-29 12:50:00,
2013-12-29 06:55:00,36.4,36.4,30.00,NW,326,3.1,3.6,100,0.00,,,0.00,VWS V13.01,2013-12-29 12:55:00,
2013-12-29 07:00:00,36.2,36.2,30.03,NNW,338,0.0,0.0,100,0.00,,,0.00,VWS V13.01,2013-12-29 13:00:00,
2013-12-29 07:05:00,36.0,36.0,30.03,NNW,338,0.0,0.0,100,0.00,,,0.00,VWS V13.01,2013-12-29 13:05:00,
2013-12-29 07:10:00,35.8,35.8,30.03,SE,125,2.7,2.7,100,0.00,,,0.00,VWS V13.01,2013-12-29 13:10:00,
2013-12-29 07:15:00,35.6,35.6,30.00,SE,125,0.0,0.0,100,0.00,,,0.00,VWS V13.01,2013-12-29 13:15:00,
2013-12-29 07:20:00,35.3,35.3,30.00,NNE,15,0.0,0.0,100,0.00,,,0.00,VWS V13.01,2013-12-29 13:20:00,
2013-12-29 07:25:00,35.1,35.1,30.03,NNE,15,0.0,0.0,100,0.00,,,0.00,VWS V13.01,2013-12-29 13:25:00,
2013-12-29 07:30:00,35.1,35.1,30.03,NNE,15,0.0,0.0,100,0.00,,,0.00,VWS V13.01,2013-12-29 13:30:00,
2013-12-29 07:35:00,34.7,34.7,30.03,North,359,0.0,0.0,100,0.00,,,0.00,VWS V13.01,2013-12-29 13:35:00,
2013-12-29 07:40:00,34.6,34.6,30.03,North,359,0.0,0.0,100,0.00,,,0.00,VWS V13.01,2013-12-29 13:40:00,
2013-12-29 07:45:00,34.7,34.7,30.03,North,359,0.0,0.0,100,0.00,,,0.00,VWS V13.01,2013-12-29 13:45:00,
2013-12-29 07:50:00,34.6,34.6,30.03,North,359,0.0,0.0,100,0.00,,,0.00,VWS V13.01,2013-12-29 13:50:00,
2013-12-29 07:55:00,34.7,34.7,30.03,NNE,28,0.0,0.0,100,0.00,,,0.00,VWS V13.01,2013-12-29 13:55:00,
2013-12-29 08:00:00,35.1,35.1,30.03,NNE,28,0.0,0.0,100,0.00,,,0.00,VWS V13.01,2013-12-29 14:00:00,
2013-12-29 08:05:00,35.3,35.3,30.03,NNE,28,0.0,0.0,100,0.00,,,0.00,VWS V13.01,2013-12-29 14:05:00,
2013-12-29 08:10:00,35.5,35.5,30.03,NNE,28,0.0,0.0,100,0.00,,,0.00,VWS V13.01,2013-12-29 14:10:00,
2013-12-29 08:15:00,35.5,35.5,30.03,NNE,16,0.0,0.0,100,0.00,,,0.00,VWS V13.01,2013-12-29 14:15:00,
2013-12-29 08:20:00,36.0,36.0,30.03,NNE,16,0.0,0.0,100,0.00,,,0.00,VWS V13.01,2013-12-29 14:20:00,
2013-12-29 08:25:00,36.4,36.4,30.03,NNE,16,0.0,0.0,100,0.00,,,0.00,VWS V13.01,2013-12-29 14:25:00,
2013-12-29 08:30:00,36.9,36.9,30.06,NNE,16,0.0,0.0,100,0.00,,,0.00,VWS V13.01,2013-12-29 14:30:00,
2013-12-29 08:35:00,37.6,37.6,30.06,NNE,16,0.0,0.0,100,0.00,,,0.00,VWS V13.01,2013-12-29 14:35:00,
2013-12-29 08:40:00,38.2,38.2,30.06,NNE,16,0.0,0.0,100,0.00,,,0.00,VWS V13.01,2013-12-29 14:40:00,
2013-12-29 08:45:00,39.2,39.2,30.06,NNE,16,0.0,0.0,100,0.00,,,0.00,VWS V13.01,2013-12-29 14:45:00,
2013-12-29 08:50:00,40.0,40.0,30.06,South,169,0.0,0.0,100,0.00,,,0.00,VWS V13.01,2013-12-29 14:50:00,
2013-12-29 08:55:00,39.6,39.6,30.06,SSE,167,2.2,2.2,100,0.00,,,0.00,VWS V13.01,2013-12-29 14:55:00,
2013-12-29 09:00:00,40.0,40.0,30.06,SSE,167,0.0,0.0,100,0.00,,,0.00,VWS V13.01,2013-12-29 15:00:00,
2013-12-29 09:05:00,40.5,40.5,30.06,SSE,167,0.0,0.0,100,0.00,,,0.00,VWS V13.01,2013-12-29 15:05:00,
2013-12-29 09:10:00,40.9,40.9,30.06,South,189,0.0,0.0,100,0.00,,,0.00,VWS V13.01,2013-12-29 15:10:00,
2013-12-29 09:15:00,40.9,40.9,30.06,SSW,194,0.0,2.2,100,0.00,,,0.00,VWS V13.01,2013-12-29 15:15:00,
2013-12-29 09:20:00,41.0,41.0,30.06,South,177,2.2,2.7,100,0.00,,,0.00,VWS V13.01,2013-12-29 15:20:00,
2013-12-29 09:25:00,41.0,41.0,30.06,South,175,2.7,2.7,100,0.00,,,0.00,VWS V13.01,2013-12-29 15:25:00,
2013-12-29 09:30:00,41.4,41.4,30.06,South,169,0.0,0.0,100,0.00,,,0.00,VWS V13.01,2013-12-29 15:30:00,
2013-12-29 09:35:00,41.9,41.9,30.06,South,173,0.0,0.0,100,0.00,,,0.00,VWS V13.01,2013-12-29 15:35:00,
2013-12-29 09:40:00,42.5,42.5,30.06,WNW,296,0.0,0.0,100,0.00,,,0.00,VWS V13.01,2013-12-29 15:40:00,
2013-12-29 09:45:00,43.2,43.2,30.06,NNW,347,0.0,0.0,100,0.00,,,0.00,VWS V13.01,2013-12-29 15:45:00,
2013-12-29 09:50:00,44.5,44.5,30.06,NW,318,0.0,0.0,100,0.00,,,0.00,VWS V13.01,2013-12-29 15:50:00,
2013-12-29 09:55:00,45.0,43.1,30.06,NW,309,3.6,3.6,93,0.00,,,0.00,VWS V13.01,2013-12-29 15:55:00,
2013-12-29 10:00:00,45.5,40.4,30.06,West,273,2.7,2.7,82,0.00,,,0.00,VWS V13.01,2013-12-29 16:00:00,
2013-12-29 10:05:00,45.9,40.4,30.06,South,171,3.6,4.9,81,0.00,,,0.00,VWS V13.01,2013-12-29 16:05:00,
2013-12-29 10:10:00,46.4,40.6,30.06,SW,232,3.1,3.1,80,0.00,,,0.00,VWS V13.01,2013-12-29 16:10:00,
2013-12-29 10:15:00,46.8,40.3,30.06,WSW,255,2.7,2.7,78,0.00,,,0.00,VWS V13.01,2013-12-29 16:15:00,
2013-12-29 10:20:00,47.5,40.3,30.06,SSW,212,4.9,5.4,76,0.00,,,0.00,VWS V13.01,2013-12-29 16:20:00,
2013-12-29 10:25:00,48.2,40.3,30.06,WSW,249,5.8,5.8,74,0.00,,,0.00,VWS V13.01,2013-12-29 16:25:00,
2013-12-29 10:30:00,48.6,38.9,30.06,SW,222,4.9,7.6,69,0.00,,,0.00,VWS V13.01,2013-12-29 16:30:00,
2013-12-29 10:35:00,49.1,39.0,30.06,SW,230,5.4,7.2,68,0.00,,,0.00,VWS V13.01,2013-12-29 16:35:00,
2013-12-29 10:40:00,50.0,39.9,30.06,SSW,210,4.0,5.4,68,0.00,,,0.00,VWS V13.01,2013-12-29 16:40:00,
2013-12-29 10:45:00,50.6,39.7,30.09,WSW,248,3.1,4.0,66,0.00,,,0.00,VWS V13.01,2013-12-29 16:45:00,
2013-12-29 10:50:00,50.8,39.4,30.09,WSW,255,8.1,8.1,65,0.00,,,0.00,VWS V13.01,2013-12-29 16:50:00,
2013-12-29 10:55:00,50.8,39.8,30.09,WSW,249,4.0,4.0,66,0.00,,,0.00,VWS V13.01,2013-12-29 16:55:00,
2013-12-29 11:00:00,50.8,39.8,30.09,WSW,247,3.1,5.4,66,0.00,,,0.00,VWS V13.01,2013-12-29 17:00:00,
2013-12-29 11:05:00,50.6,39.7,30.09,WSW,253,5.4,8.1,66,0.00,,,0.00,VWS V13.01,2013-12-29 17:05:00,
2013-12-29 11:10:00,50.6,39.7,30.09,West,260,5.4,5.8,66,0.00,,,0.00,VWS V13.01,2013-12-29 17:10:00,
2013-12-29 11:15:00,50.4,39.5,30.09,WSW,243,6.3,6.3,66,0.00,,,0.00,VWS V13.01,2013-12-29 17:15:00,
2013-12-29 11:20:00,50.2,39.7,30.09,West,274,3.1,4.0,67,0.00,,,0.00,VWS V13.01,2013-12-29 17:20:00,
2013-12-29 11:25:00,49.9,39.0,30.09,WNW,297,7.2,7.2,66,0.00,,,0.00,VWS V13.01,2013-12-29 17:25:00,
2013-12-29 11:30:00,49.7,38.8,30.09,WSW,256,8.3,8.3,66,0.00,,,0.00,VWS V13.01,2013-12-29 17:30:00,
2013-12-29 11:35:00,49.5,39.4,30.09,NW,313,7.2,7.2,68,0.00,,,0.00,VWS V13.01,2013-12-29 17:35:00,
2013-12-29 11:40:00,49.5,39.4,30.09,WNW,289,3.1,3.1,68,0.00,,,0.00,VWS V13.01,2013-12-29 17:40:00,
2013-12-29 11:45:00,49.5,39.0,30.09,WSW,241,5.4,6.3,67,0.00,,,0.00,VWS V13.01,2013-12-29 17:45:00,
2013-12-29 11:49:00,49.3,38.8,30.09,West,281,8.3,8.3,67,0.00,,,0.00,VWS V13.01,2013-12-29 17:49:00,
2013-12-29 11:54:00,49.1,39.0,30.09,NW,312,5.4,5.8,68,0.00,,,0.00,VWS V13.01,2013-12-29 17:54:00,
2013-12-29 11:59:00,49.1,39.0,30.09,WSW,253,3.6,3.6,68,0.00,,,0.00,VWS V13.01,2013-12-29 17:59:00,
2013-12-29 12:04:00,48.8,38.7,30.09,WSW,253,5.8,9.6,68,0.00,,,0.00,VWS V13.01,2013-12-29 18:04:00,
2013-12-29 12:09:00,48.4,38.4,30.09,WNW,290,5.8,8.7,68,0.00,,,0.00,VWS V13.01,2013-12-29 18:09:00,
2013-12-29 12:14:00,48.2,38.2,30.09,WNW,299,8.7,8.7,68,0.00,,,0.00,VWS V13.01,2013-12-29 18:14:00,
2013-12-29 12:19:00,48.2,38.2,30.09,West,277,3.1,3.6,68,0.00,,,0.00,VWS V13.01,2013-12-29 18:19:00,
2013-12-29 12:24:00,47.9,37.8,30.09,West,265,3.6,7.6,68,0.00,,,0.00,VWS V13.01,2013-12-29 18:24:00,
2013-12-29 12:29:00,47.9,37.8,30.09,West,266,4.0,5.8,68,0.00,,,0.00,VWS V13.01,2013-12-29 18:29:00,
2013-12-29 12:34:00,47.5,37.5,30.09,WNW,291,5.4,8.7,68,0.00,,,0.00,VWS V13.01,2013-12-29 18:34:00,
2013-12-29 12:39:00,47.2,36.8,30.09,WNW,283,6.3,8.1,67,0.00,,,0.00,VWS V13.01,2013-12-29 18:39:00,
2013-12-29 12:44:00,47.0,37.0,30.09,West,277,8.7,8.7,68,0.00,,,0.00,VWS V13.01,2013-12-29 18:44:00,
2013-12-29 12:49:00,46.8,36.8,30.09,WNW,286,2.7,4.9,68,0.00,,,0.00,VWS V13.01,2013-12-29 18:49:00,
2013-12-29 12:54:00,46.6,36.3,30.09,WSW,255,4.0,6.3,67,0.00,,,0.00,VWS V13.01,2013-12-29 18:54:00,
2013-12-29 12:59:00,46.3,35.9,30.09,West,266,4.5,8.7,67,0.00,,,0.00,VWS V13.01,2013-12-29 18:59:00,
2013-12-29 13:04:00,45.9,35.6,30.09,WNW,282,4.0,6.3,67,0.00,,,0.00,VWS V13.01,2013-12-29 19:04:00,
2013-12-29 13:09:00,45.9,36.0,30.09,West,281,3.6,6.3,68,0.00,,,0.00,VWS V13.01,2013-12-29 19:09:00,
2013-12-29 13:14:00,45.9,35.6,30.09,NW,305,4.0,6.3,67,0.00,,,0.00,VWS V13.01,2013-12-29 19:14:00,
2013-12-29 13:19:00,45.9,35.6,30.09,WNW,288,4.9,5.8,67,0.00,,,0.00,VWS V13.01,2013-12-29 19:19:00,
2013-12-29 13:24:00,45.9,35.2,30.09,NW,321,4.0,5.8,66,0.00,,,0.00,VWS V13.01,2013-12-29 19:24:00,
2013-12-29 13:29:00,45.7,35.4,30.09,WSW,237,3.1,4.0,67,0.00,,,0.00,VWS V13.01,2013-12-29 19:29:00,
2013-12-29 13:34:00,45.0,34.7,30.09,WNW,300,4.0,5.8,67,0.00,,,0.00,VWS V13.01,2013-12-29 19:34:00,
2013-12-29 13:39:00,45.4,35.4,30.09,WNW,293,3.6,3.6,68,0.00,,,0.00,VWS V13.01,2013-12-29 19:39:00,
2013-12-29 13:44:00,45.0,34.7,30.09,NW,315,4.5,4.5,67,0.00,,,0.00,VWS V13.01,2013-12-29 19:44:00,
2013-12-29 13:49:00,44.6,34.4,30.09,NW,305,3.6,7.6,67,0.00,,,0.00,VWS V13.01,2013-12-29 19:49:00,
2013-12-29 13:54:00,43.7,33.5,30.09,WNW,296,6.3,6.3,67,0.00,,,0.00,VWS V13.01,2013-12-29 19:54:00,
2013-12-29 13:59:00,43.2,33.0,30.11,NW,314,5.4,5.8,67,0.00,,,0.00,VWS V13.01,2013-12-29 19:59:00,
2013-12-29 14:04:00,43.0,32.8,30.11,NNE,14,5.8,5.8,67,0.00,,,0.00,VWS V13.01,2013-12-29 20:04:00,
2013-12-29 14:09:00,42.8,32.7,30.11,North,356,6.3,8.1,67,0.00,,,0.00,VWS V13.01,2013-12-29 20:09:00,
2013-12-29 14:14:00,42.7,32.5,30.11,North,6,5.4,5.4,67,0.00,,,0.00,VWS V13.01,2013-12-29 20:14:00,
2013-12-29 14:19:00,42.1,32.3,30.11,NNW,342,4.0,4.9,68,0.00,,,0.00,VWS V13.01,2013-12-29 20:19:00,
2013-12-29 14:24:00,41.9,32.2,30.11,North,5,4.0,4.9,68,0.00,,,0.00,VWS V13.01,2013-12-29 20:24:00,
2013-12-29 14:29:00,41.8,31.6,30.11,NW,326,6.3,6.3,67,0.00,,,0.00,VWS V13.01,2013-12-29 20:29:00,
2013-12-29 14:34:00,41.4,31.3,30.11,NNW,344,3.6,3.6,67,0.00,,,0.00,VWS V13.01,2013-12-29 20:34:00,
2013-12-29 14:39:00,41.2,31.1,30.11,NW,313,4.9,8.3,67,0.00,,,0.00,VWS V13.01,2013-12-29 20:39:00,
2013-12-29 14:44:00,40.9,30.8,30.11,NW,322,5.4,5.4,67,0.00,,,0.00,VWS V13.01,2013-12-29 20:44:00,
2013-12-29 14:49:00,41.0,30.9,30.11,NW,309,5.4,5.4,67,0.00,,,0.00,VWS V13.01,2013-12-29 20:49:00,
2013-12-29 14:54:00,41.0,30.9,30.11,NW,313,4.0,4.9,67,0.00,,,0.00,VWS V13.01,2013-12-29 20:54:00,
2013-12-29 14:59:00,40.9,30.8,30.11,North,349,4.9,5.4,67,0.00,,,0.00,VWS V13.01,2013-12-29 20:59:00,
2013-12-29 15:04:00,40.5,30.4,30.11,WNW,301,5.8,5.8,67,0.00,,,0.00,VWS V13.01,2013-12-29 21:04:00,
2013-12-29 15:09:00,40.5,30.4,30.11,NNW,328,3.1,4.0,67,0.00,,,0.00,VWS V13.01,2013-12-29 21:09:00,
2013-12-29 15:14:00,40.3,30.2,30.14,NNW,331,3.1,3.1,67,0.00,,,0.00,VWS V13.01,2013-12-29 21:14:00,
2013-12-29 15:19:00,40.1,30.1,30.14,NW,325,2.7,2.7,67,0.00,,,0.00,VWS V13.01,2013-12-29 21:19:00,
2013-12-29 15:24:00,40.0,29.9,30.14,WNW,286,3.6,4.0,67,0.00,,,0.00,VWS V13.01,2013-12-29 21:24:00,
2013-12-29 15:29:00,40.0,30.3,30.14,West,267,4.0,5.8,68,0.00,,,0.00,VWS V13.01,2013-12-29 21:29:00,
2013-12-29 15:34:00,39.6,29.6,30.14,WSW,257,8.1,8.1,67,0.00,,,0.00,VWS V13.01,2013-12-29 21:34:00,
2013-12-29 15:39:00,39.4,29.8,30.14,SW,230,5.4,5.8,68,0.00,,,0.00,VWS V13.01,2013-12-29 21:39:00,
2013-12-29 15:44:00,39.2,29.6,30.14,WSW,257,3.1,3.6,68,0.00,,,0.00,VWS V13.01,2013-12-29 21:44:00,
2013-12-29 15:49:00,39.1,29.4,30.14,WNW,286,4.9,4.9,68,0.00,,,0.00,VWS V13.01,2013-12-29 21:49:00,
2013-12-29 15:54:00,38.9,29.2,30.14,NW,310,3.6,4.0,68,0.00,,,0.00,VWS V13.01,2013-12-29 21:54:00,
2013-12-29 15:59:00,38.5,28.9,30.14,NW,317,6.3,6.3,68,0.00,,,0.00,VWS V13.01,2013-12-29 21:59:00,
2013-12-29 16:04:00,38.3,28.7,30.14,NW,308,2.7,3.6,68,0.00,,,0.00,VWS V13.01,2013-12-29 22:04:00,
2013-12-29 16:09:00,38.3,28.7,30.14,North,360,2.7,3.6,68,0.00,,,0.00,VWS V13.01,2013-12-29 22:09:00,
2013-12-29 16:14:00,38.2,28.5,30.17,NW,306,4.9,10.5,68,0.00,,,0.00,VWS V13.01,2013-12-29 22:14:00,
2013-12-29 16:19:00,38.0,28.4,30.17,NW,319,4.9,8.7,68,0.00,,,0.00,VWS V13.01,2013-12-29 22:19:00,
2013-12-29 16:24:00,37.6,28.0,30.17,NW,304,5.8,5.8,68,0.00,,,0.00,VWS V13.01,2013-12-29 22:24:00,
2013-12-29 16:29:00,37.6,28.0,30.17,NW,316,4.9,4.9,68,0.00,,,0.00,VWS V13.01,2013-12-29 22:29:00,
2013-12-29 16:34:00,37.4,27.9,30.17,WNW,284,5.4,6.3,68,0.00,,,0.00,VWS V13.01,2013-12-29 22:34:00,
2013-12-29 16:39:00,36.9,27.3,30.17,WNW,302,6.3,6.3,68,0.00,,,0.00,VWS V13.01,2013-12-29 22:39:00,
2013-12-29 16:44:00,36.5,27.0,30.20,NW,308,9.6,10.5,68,0.00,,,0.00,VWS V13.01,2013-12-29 22:44:00,
2013-12-29 16:49:00,36.4,26.8,30.20,NW,319,5.8,5.8,68,0.00,,,0.00,VWS V13.01,2013-12-29 22:49:00,
2013-12-29 16:54:00,36.4,26.8,30.20,NW,307,5.8,5.8,68,0.00,,,0.00,VWS V13.01,2013-12-29 22:54:00,
2013-12-29 16:59:00,36.2,26.6,30.20,WNW,296,6.3,6.3,68,0.00,,,0.00,VWS V13.01,2013-12-29 22:59:00,
2013-12-29 17:04:00,36.2,26.6,30.20,West,269,6.3,6.3,68,0.00,,,0.00,VWS V13.01,2013-12-29 23:04:00,
2013-12-29 17:09:00,36.2,26.6,30.20,NW,307,3.1,3.1,68,0.00,,,0.00,VWS V13.01,2013-12-29 23:09:00,
2013-12-29 17:14:00,36.0,26.5,30.20,WNW,292,4.0,4.0,68,0.00,,,0.00,VWS V13.01,2013-12-29 23:14:00,
2013-12-29 17:19:00,35.8,26.3,30.20,WNW,284,3.1,3.1,68,0.00,,,0.00,VWS V13.01,2013-12-29 23:19:00,
2013-12-29 17:24:00,35.5,26.0,30.20,NW,310,11.0,11.0,68,0.00,,,0.00,VWS V13.01,2013-12-29 23:24:00,
2013-12-29 17:29:00,35.3,25.8,30.20,NW,323,4.9,4.9,68,0.00,,,0.00,VWS V13.01,2013-12-29 23:29:00,
2013-12-29 17:33:00,35.1,25.6,30.20,WNW,302,8.1,8.1,68,0.00,,,0.00,VWS V13.01,2013-12-29 23:33:00,
2013-12-29 17:38:00,34.7,25.3,30.20,NW,325,7.2,7.2,68,0.00,,,0.00,VWS V13.01,2013-12-29 23:38:00,
2013-12-29 17:43:00,34.4,24.9,30.23,NW,318,4.0,4.0,68,0.00,,,0.00,VWS V13.01,2013-12-29 23:43:00,
2013-12-29 17:48:00,34.4,24.9,30.23,WNW,285,4.0,6.3,68,0.00,,,0.00,VWS V13.01,2013-12-29 23:48:00,
2013-12-29 17:53:00,34.2,24.8,30.23,NW,312,3.6,4.0,68,0.00,,,0.00,VWS V13.01,2013-12-29 23:53:00,
2013-12-29 17:58:00,34.0,24.9,30.23,WNW,286,6.3,6.3,69,0.00,,,0.00,VWS V13.01,2013-12-29 23:58:00,
2013-12-29 18:03:00,34.0,24.9,30.23,NW,326,4.0,4.9,69,0.00,,,0.00,VWS V13.01,2013-12-30 00:03:00,
2013-12-29 18:08:00,34.0,24.6,30.23,NW,325,5.4,5.4,68,0.00,,,0.00,VWS V13.01,2013-12-30 00:08:00,
2013-12-29 18:13:00,34.0,24.6,30.23,NW,308,2.7,5.8,68,0.00,,,0.00,VWS V13.01,2013-12-30 00:13:00,
2013-12-29 18:18:00,34.0,24.6,30.23,NNW,344,5.8,6.3,68,0.00,,,0.00,VWS V13.01,2013-12-30 00:18:00,
2013-12-29 18:23:00,34.0,24.6,30.23,NW,322,4.0,8.1,68,0.00,,,0.00,VWS V13.01,2013-12-30 00:23:00,
2013-12-29 18:28:00,33.8,24.4,30.23,North,357,4.9,5.4,68,0.00,,,0.00,VWS V13.01,2013-12-30 00:28:00,
2013-12-29 18:33:00,33.8,24.4,30.23,North,354,3.1,6.7,68,0.00,,,0.00,VWS V13.01,2013-12-30 00:33:00,
2013-12-29 18:38:00,33.8,24.4,30.23,NW,318,5.4,6.3,68,0.00,,,0.00,VWS V13.01,2013-12-30 00:38:00,
2013-12-29 18:43:00,33.7,24.2,30.26,WNW,300,4.0,5.4,68,0.00,,,0.00,VWS V13.01,2013-12-30 00:43:00,
2013-12-29 18:48:00,33.3,23.9,30.26,NW,314,5.4,7.6,68,0.00,,,0.00,VWS V13.01,2013-12-30 00:48:00,
2013-12-29 18:53:00,33.3,23.9,30.26,NW,317,2.7,4.0,68,0.00,,,0.00,VWS V13.01,2013-12-30 00:53:00,
2013-12-29 18:58:00,33.3,23.9,30.26,NNW,342,2.7,3.6,68,0.00,,,0.00,VWS V13.01,2013-12-30 00:58:00,
2013-12-29 19:03:00,33.3,23.9,30.26,NW,312,4.0,5.4,68,0.00,,,0.00,VWS V13.01,2013-12-30 01:03:00,
2013-12-29 19:08:00,33.1,23.7,30.26,NW,306,3.6,5.8,68,0.00,,,0.00,VWS V13.01,2013-12-30 01:08:00,
2013-12-29 19:13:00,32.9,23.9,30.26,NW,315,2.7,4.0,69,0.00,,,0.00,VWS V13.01,2013-12-30 01:13:00,
2013-12-29 19:18:00,32.9,23.5,30.26,NW,313,5.4,8.1,68,0.00,,,0.00,VWS V13.01,2013-12-30 01:18:00,
2013-12-29 19:23:00,32.8,23.4,30.26,NW,308,3.1,3.1,68,0.00,,,0.00,VWS V13.01,2013-12-30 01:23:00,
2013-12-29 19:28:00,32.8,23.4,30.26,NW,321,4.0,4.0,68,0.00,,,0.00,VWS V13.01,2013-12-30 01:28:00,
2013-12-29 19:33:00,32.8,23.4,30.26,West,277,8.1,8.7,68,0.00,,,0.00,VWS V13.01,2013-12-30 01:33:00,
2013-12-29 19:35:00,32.8,23.4,30.26,NW,325,3.6,4.0,68,0.00,,,0.00,VWS V13.01,2013-12-30 01:35:00,
2013-12-29 19:40:00,32.8,23.4,30.26,NNW,334,3.1,3.6,68,0.00,,,0.00,VWS V13.01,2013-12-30 01:40:00,
2013-12-29 19:45:00,32.6,23.2,30.26,WNW,303,4.0,4.0,68,0.00,,,0.00,VWS V13.01,2013-12-30 01:45:00,
2013-12-29 19:50:00,32.6,23.2,30.26,NNW,339,4.0,4.0,68,0.00,,,0.00,VWS V13.01,2013-12-30 01:50:00,
2013-12-29 19:55:00,32.6,23.2,30.26,NW,318,3.1,4.0,68,0.00,,,0.00,VWS V13.01,2013-12-30 01:55:00,
2013-12-29 20:00:00,32.6,23.2,30.26,NNW,327,2.7,2.7,68,0.00,,,0.00,VWS V13.01,2013-12-30 02:00:00,
2013-12-29 20:05:00,32.8,23.4,30.26,NW,310,2.7,3.1,68,0.00,,,0.00,VWS V13.01,2013-12-30 02:05:00,
2013-12-29 20:10:00,32.8,23.4,30.26,NNW,340,2.7,2.7,68,0.00,,,0.00,VWS V13.01,2013-12-30 02:10:00,
2013-12-29 20:14:00,32.6,22.5,30.29,NNW,344,5.8,7.6,66,0.00,,,0.00,VWS V13.01,2013-12-30 02:14:00,
2013-12-29 20:19:00,32.6,22.9,30.29,North,5,5.8,5.8,67,0.00,,,0.00,VWS V13.01,2013-12-30 02:19:00,
2013-12-29 20:24:00,32.2,21.8,30.29,NW,308,7.6,12.8,65,0.00,,,0.00,VWS V13.01,2013-12-30 02:24:00,
2013-12-29 20:29:00,32.2,22.1,30.29,NNW,327,5.4,8.1,66,0.00,,,0.00,VWS V13.01,2013-12-30 02:29:00,
2013-12-29 20:34:00,32.2,21.8,30.29,NNW,330,6.3,6.3,65,0.00,,,0.00,VWS V13.01,2013-12-30 02:34:00,
2013-12-29 20:39:00,32.2,22.1,30.29,North,359,4.0,4.9,66,0.00,,,0.00,VWS V13.01,2013-12-30 02:39:00,
2013-12-29 20:44:00,32.0,21.6,30.29,WNW,301,4.0,4.5,65,0.00,,,0.00,VWS V13.01,2013-12-30 02:44:00,
2013-12-29 20:49:00,32.0,22.0,30.29,NW,321,4.0,4.0,66,0.00,,,0.00,VWS V13.01,2013-12-30 02:49:00,
2013-12-29 20:54:00,31.9,21.5,30.29,NW,311,5.4,7.6,65,0.00,,,0.00,VWS V13.01,2013-12-30 02:54:00,
2013-12-29 20:59:00,31.7,21.6,30.29,NNW,328,4.0,6.3,66,0.00,,,0.00,VWS V13.01,2013-12-30 02:59:00,
2013-12-29 21:04:00,31.7,21.3,30.29,NNW,331,5.4,6.3,65,0.00,,,0.00,VWS V13.01,2013-12-30 03:04:00,
2013-12-29 21:09:00,31.5,21.1,30.29,WNW,302,6.3,7.6,65,0.00,,,0.00,VWS V13.01,2013-12-30 03:09:00,
2013-12-29 21:14:00,31.3,21.3,30.29,NW,320,5.4,5.4,66,0.00,,,0.00,VWS V13.01,2013-12-30 03:14:00,
2013-12-29 21:19:00,31.0,21.0,30.29,North,359,4.0,6.3,66,0.00,,,0.00,VWS V13.01,2013-12-30 03:19:00,
2013-12-29 21:24:00,30.6,21.0,30.29,North,356,3.6,4.0,67,0.00,,,0.00,VWS V13.01,2013-12-30 03:24:00,
2013-12-29 21:29:00,30.6,20.6,30.29,NW,326,4.0,5.8,66,0.00,,,0.00,VWS V13.01,2013-12-30 03:29:00,
2013-12-29 21:34:00,30.4,20.8,30.29,North,1,2.7,4.9,67,0.00,,,0.00,VWS V13.01,2013-12-30 03:34:00,
2013-12-29 21:39:00,30.2,20.3,30.29,NW,323,6.3,6.3,66,0.00,,,0.00,VWS V13.01,2013-12-30 03:39:00,
2013-12-29 21:44:00,30.2,20.6,30.29,NW,326,4.0,4.0,67,0.00,,,0.00,VWS V13.01,2013-12-30 03:44:00,
2013-12-29 21:49:00,30.1,20.4,30.29,NNW,330,5.8,5.8,67,0.00,,,0.00,VWS V13.01,2013-12-30 03:49:00,
2013-12-29 21:54:00,30.1,20.8,30.29,NNW,345,2.7,4.0,68,0.00,,,0.00,VWS V13.01,2013-12-30 03:54:00,
2013-12-29 21:59:00,29.9,20.6,30.29,NW,316,2.7,3.6,68,0.00,,,0.00,VWS V13.01,2013-12-30 03:59:00,
2013-12-29 22:04:00,29.9,20.6,30.29,NW,320,2.2,2.7,68,0.00,,,0.00,VWS V13.01,2013-12-30 04:04:00,
2013-12-29 22:09:00,29.7,20.5,30.29,North,355,3.1,3.6,68,0.00,,,0.00,VWS V13.01,2013-12-30 04:09:00,
2013-12-29 22:14:00,29.5,20.3,30.29,North,3,4.0,4.0,68,0.00,,,0.00,VWS V13.01,2013-12-30 04:14:00,
2013-12-29 22:19:00,29.3,20.5,30.29,NNE,25,3.6,3.6,69,0.00,,,0.00,VWS V13.01,2013-12-30 04:19:00,
2013-12-29 22:24:00,29.2,19.9,30.29,NNW,342,2.7,4.0,68,0.00,,,0.00,VWS V13.01,2013-12-30 04:24:00,
2013-12-29 22:29:00,29.2,19.9,30.29,NW,317,4.0,4.0,68,0.00,,,0.00,VWS V13.01,2013-12-30 04:29:00,
2013-12-29 22:34:00,29.2,19.9,30.29,NW,326,4.0,4.9,68,0.00,,,0.00,VWS V13.01,2013-12-30 04:34:00,
2013-12-29 22:39:00,29.0,19.8,30.29,NW,316,3.1,4.9,68,0.00,,,0.00,VWS V13.01,2013-12-30 04:39:00,
2013-12-29 22:44:00,29.0,19.8,30.29,NW,310,3.1,3.1,68,0.00,,,0.00,VWS V13.01,2013-12-30 04:44:00,
2013-12-29 22:49:00,29.2,19.9,30.29,North,10,4.9,5.8,68,0.00,,,0.00,VWS V13.01,2013-12-30 04:49:00,
2013-12-29 22:54:00,29.2,19.9,30.29,NNW,329,4.9,5.8,68,0.00,,,0.00,VWS V13.01,2013-12-30 04:54:00,
2013-12-29 22:59:00,29.2,19.9,30.29,NNW,328,4.0,4.9,68,0.00,,,0.00,VWS V13.01,2013-12-30 04:59:00,
2013-12-29 23:01:00,29.2,19.9,30.29,NNW,340,4.0,4.0,68,0.00,,,0.00,VWS V13.01,2013-12-30 05:01:00,
2013-12-29 23:06:00,29.2,19.9,30.29,NNW,348,3.1,3.1,68,0.00,,,0.00,VWS V13.01,2013-12-30 05:06:00,
2013-12-29 23:11:00,29.2,19.9,30.29,NW,324,3.1,3.1,68,0.00,,,0.00,VWS V13.01,2013-12-30 05:11:00,
2013-12-29 23:16:00,29.2,19.9,30.29,NW,325,3.6,3.6,68,0.00,,,0.00,VWS V13.01,2013-12-30 05:16:00,
2013-12-29 23:21:00,29.2,19.9,30.29,NNW,337,3.6,3.6,68,0.00,,,0.00,VWS V13.01,2013-12-30 05:21:00,
2013-12-29 23:26:00,29.2,19.9,30.29,NNW,340,3.6,4.0,68,0.00,,,0.00,VWS V13.01,2013-12-30 05:26:00,
2013-12-29 23:31:00,29.2,19.9,30.29,NW,319,3.6,4.0,68,0.00,,,0.00,VWS V13.01,2013-12-30 05:31:00,
2013-12-29 23:36:00,29.2,19.9,30.29,NW,316,4.0,4.0,68,0.00,,,0.00,VWS V13.01,2013-12-30 05:36:00,
2013-12-29 23:41:00,29.2,19.9,30.29,NW,326,0.0,0.0,68,0.00,,,0.00,VWS V13.01,2013-12-30 05:41:00,
2013-12-29 23:46:00,29.2,19.9,30.29,NNW,328,2.7,2.7,68,0.00,,,0.00,VWS V13.01,2013-12-30 05:46:00,
2013-12-29 23:51:00,29.0,19.8,30.29,NNW,341,2.7,2.7,68,0.00,,,0.00,VWS V13.01,2013-12-30 05:51:00,
2013-12-29 23:56:00,29.0,19.8,30.29,WNW,289,4.0,4.0,68,0.00,,,0.00,VWS V13.01,2013-12-30 05:56:00,